sensor_id;sensor_type;location;lat;lon;timestamp;P1;durP1;ratioP1;P2;durP2;ratioP2
61907;SDS011;47864;52.526;19.672;2023-06-19T00:00:39;14.70;;;11.55;;
61907;SDS011;47864;52.526;19.672;2023-06-19T00:02:41;14.75;;;10.98;;
61907;SDS011;47864;52.526;19.672;2023-06-19T00:04:43;14.27;;;11.68;;
61907;SDS011;47864;52.526;19.672;2023-06-19T00:06:45;14.85;;;11.43;;
61907;SDS011;47864;52.526;19.672;2023-06-19T00:08:46;17.35;;;12.77;;
61907;SDS011;47864;52.526;19.672;2023-06-19T00:10:48;13.35;;;11.85;;
61907;SDS011;47864;52.526;19.672;2023-06-19T00:12:50;15.80;;;12.65;;
61907;SDS011;47864;52.526;19.672;2023-06-19T00:14:51;16.23;;;12.63;;
61907;SDS011;47864;52.526;19.672;2023-06-19T00:16:53;16.45;;;12.85;;
61907;SDS011;47864;52.526;19.672;2023-06-19T00:18:54;16.50;;;12.48;;
61907;SDS011;47864;52.526;19.672;2023-06-19T00:20:56;15.18;;;12.00;;
61907;SDS011;47864;52.526;19.672;2023-06-19T00:22:58;14.57;;;11.57;;
61907;SDS011;47864;52.526;19.672;2023-06-19T00:24:59;15.35;;;12.60;;
61907;SDS011;47864;52.526;19.672;2023-06-19T00:27:01;24.90;;;16.10;;
61907;SDS011;47864;52.526;19.672;2023-06-19T00:29:02;24.30;;;14.85;;
61907;SDS011;47864;52.526;19.672;2023-06-19T00:31:04;16.05;;;12.68;;
61907;SDS011;47864;52.526;19.672;2023-06-19T00:33:06;16.45;;;12.98;;
61907;SDS011;47864;52.526;19.672;2023-06-19T00:35:08;16.40;;;12.52;;
61907;SDS011;47864;52.526;19.672;2023-06-19T00:37:10;18.33;;;12.90;;
61907;SDS011;47864;52.526;19.672;2023-06-19T00:39:11;22.10;;;13.90;;
61907;SDS011;47864;52.526;19.672;2023-06-19T00:41:13;18.05;;;13.88;;
61907;SDS011;47864;52.526;19.672;2023-06-19T00:43:16;17.08;;;13.60;;
61907;SDS011;47864;52.526;19.672;2023-06-19T00:45:18;20.40;;;15.35;;
61907;SDS011;47864;52.526;19.672;2023-06-19T00:47:20;26.50;;;17.67;;
61907;SDS011;47864;52.526;19.672;2023-06-19T00:49:22;27.48;;;16.50;;
61907;SDS011;47864;52.526;19.672;2023-06-19T00:51:25;22.23;;;17.42;;
61907;SDS011;47864;52.526;19.672;2023-06-19T00:53:27;25.67;;;17.08;;
61907;SDS011;47864;52.526;19.672;2023-06-19T00:55:29;21.10;;;16.00;;
61907;SDS011;47864;52.526;19.672;2023-06-19T00:57:31;23.10;;;15.15;;
61907;SDS011;47864;52.526;19.672;2023-06-19T00:59:33;20.02;;;14.75;;
61907;SDS011;47864;52.526;19.672;2023-06-19T01:01:35;21.05;;;14.77;;
61907;SDS011;47864;52.526;19.672;2023-06-19T01:03:37;19.20;;;13.85;;
61907;SDS011;47864;52.526;19.672;2023-06-19T01:05:39;21.13;;;14.23;;
61907;SDS011;47864;52.526;19.672;2023-06-19T01:10:04;18.30;;;13.15;;
61907;SDS011;47864;52.526;19.672;2023-06-19T01:12:13;18.73;;;13.98;;
61907;SDS011;47864;52.526;19.672;2023-06-19T01:14:21;25.85;;;14.82;;
61907;SDS011;47864;52.526;19.672;2023-06-19T01:16:29;22.27;;;15.10;;
61907;SDS011;47864;52.526;19.672;2023-06-19T01:18:31;21.25;;;15.85;;
61907;SDS011;47864;52.526;19.672;2023-06-19T01:20:33;20.55;;;16.15;;
61907;SDS011;47864;52.526;19.672;2023-06-19T01:22:35;31.02;;;17.70;;
61907;SDS011;47864;52.526;19.672;2023-06-19T01:24:36;51.78;;;18.10;;
61907;SDS011;47864;52.526;19.672;2023-06-19T01:26:38;61.80;;;18.58;;
61907;SDS011;47864;52.526;19.672;2023-06-19T01:28:41;38.75;;;17.23;;
61907;SDS011;47864;52.526;19.672;2023-06-19T01:30:44;28.67;;;17.25;;
61907;SDS011;47864;52.526;19.672;2023-06-19T01:34:47;35.40;;;19.80;;
61907;SDS011;47864;52.526;19.672;2023-06-19T01:36:50;35.45;;;19.05;;
61907;SDS011;47864;52.526;19.672;2023-06-19T01:38:53;26.38;;;18.60;;
61907;SDS011;47864;52.526;19.672;2023-06-19T01:40:57;30.17;;;19.85;;
61907;SDS011;47864;52.526;19.672;2023-06-19T01:43:02;25.80;;;18.77;;
61907;SDS011;47864;52.526;19.672;2023-06-19T01:45:04;31.05;;;19.38;;
61907;SDS011;47864;52.526;19.672;2023-06-19T01:47:08;50.67;;;20.45;;
61907;SDS011;47864;52.526;19.672;2023-06-19T01:49:11;37.70;;;19.90;;
61907;SDS011;47864;52.526;19.672;2023-06-19T01:51:12;33.08;;;18.05;;
61907;SDS011;47864;52.526;19.672;2023-06-19T01:53:14;32.88;;;17.95;;
61907;SDS011;47864;52.526;19.672;2023-06-19T01:55:16;21.98;;;17.50;;
61907;SDS011;47864;52.526;19.672;2023-06-19T01:57:18;27.70;;;18.70;;
61907;SDS011;47864;52.526;19.672;2023-06-19T01:59:20;27.55;;;17.30;;
61907;SDS011;47864;52.526;19.672;2023-06-19T02:01:21;25.67;;;17.95;;
61907;SDS011;47864;52.526;19.672;2023-06-19T02:03:23;26.00;;;20.02;;
61907;SDS011;47864;52.526;19.672;2023-06-19T02:05:25;28.77;;;20.00;;
61907;SDS011;47864;52.526;19.672;2023-06-19T02:07:26;28.73;;;19.80;;
61907;SDS011;47864;52.526;19.672;2023-06-19T02:09:28;34.92;;;21.25;;
61907;SDS011;47864;52.526;19.672;2023-06-19T02:11:29;34.50;;;20.27;;
61907;SDS011;47864;52.526;19.672;2023-06-19T02:13:31;25.08;;;20.20;;
61907;SDS011;47864;52.526;19.672;2023-06-19T02:15:32;25.17;;;19.33;;
61907;SDS011;47864;52.526;19.672;2023-06-19T02:17:34;24.38;;;19.85;;
61907;SDS011;47864;52.526;19.672;2023-06-19T02:19:36;51.70;;;22.73;;
61907;SDS011;47864;52.526;19.672;2023-06-19T02:21:37;29.02;;;22.05;;
61907;SDS011;47864;52.526;19.672;2023-06-19T02:23:39;27.75;;;22.17;;
61907;SDS011;47864;52.526;19.672;2023-06-19T02:25:41;37.88;;;24.35;;
61907;SDS011;47864;52.526;19.672;2023-06-19T02:27:43;28.05;;;22.30;;
61907;SDS011;47864;52.526;19.672;2023-06-19T02:29:44;28.05;;;22.00;;
61907;SDS011;47864;52.526;19.672;2023-06-19T02:31:46;30.58;;;22.90;;
61907;SDS011;47864;52.526;19.672;2023-06-19T02:33:47;28.95;;;21.65;;
61907;SDS011;47864;52.526;19.672;2023-06-19T02:35:49;28.02;;;20.63;;
61907;SDS011;47864;52.526;19.672;2023-06-19T02:37:51;39.15;;;21.75;;
61907;SDS011;47864;52.526;19.672;2023-06-19T02:39:52;25.90;;;18.98;;
61907;SDS011;47864;52.526;19.672;2023-06-19T02:41:54;24.92;;;19.42;;
61907;SDS011;47864;52.526;19.672;2023-06-19T02:43:55;30.00;;;18.75;;
61907;SDS011;47864;52.526;19.672;2023-06-19T02:45:57;45.40;;;18.73;;
61907;SDS011;47864;52.526;19.672;2023-06-19T02:47:58;48.42;;;16.45;;
61907;SDS011;47864;52.526;19.672;2023-06-19T02:50:01;38.30;;;18.23;;
61907;SDS011;47864;52.526;19.672;2023-06-19T02:52:04;44.50;;;16.60;;
61907;SDS011;47864;52.526;19.672;2023-06-19T02:54:06;53.88;;;18.77;;
61907;SDS011;47864;52.526;19.672;2023-06-19T02:56:08;56.65;;;18.70;;
61907;SDS011;47864;52.526;19.672;2023-06-19T02:58:09;71.60;;;18.60;;
61907;SDS011;47864;52.526;19.672;2023-06-19T03:00:11;49.47;;;19.05;;
61907;SDS011;47864;52.526;19.672;2023-06-19T03:02:13;50.38;;;18.75;;
61907;SDS011;47864;52.526;19.672;2023-06-19T03:04:14;34.95;;;18.17;;
61907;SDS011;47864;52.526;19.672;2023-06-19T03:06:16;41.38;;;20.95;;
61907;SDS011;47864;52.526;19.672;2023-06-19T03:08:17;33.33;;;17.63;;
61907;SDS011;47864;52.526;19.672;2023-06-19T03:10:19;37.22;;;21.27;;
61907;SDS011;47864;52.526;19.672;2023-06-19T03:12:20;30.17;;;21.20;;
61907;SDS011;47864;52.526;19.672;2023-06-19T03:14:22;32.13;;;20.08;;
61907;SDS011;47864;52.526;19.672;2023-06-19T03:16:23;35.22;;;20.90;;
61907;SDS011;47864;52.526;19.672;2023-06-19T03:18:25;40.33;;;21.42;;
61907;SDS011;47864;52.526;19.672;2023-06-19T03:20:27;55.33;;;22.15;;
61907;SDS011;47864;52.526;19.672;2023-06-19T03:22:28;58.35;;;20.10;;
61907;SDS011;47864;52.526;19.672;2023-06-19T03:24:30;59.58;;;21.27;;
61907;SDS011;47864;52.526;19.672;2023-06-19T03:26:31;83.43;;;20.70;;
61907;SDS011;47864;52.526;19.672;2023-06-19T03:28:33;151.77;;;19.83;;
61907;SDS011;47864;52.526;19.672;2023-06-19T03:30:34;114.25;;;18.17;;
61907;SDS011;47864;52.526;19.672;2023-06-19T03:32:36;93.13;;;19.38;;
61907;SDS011;47864;52.526;19.672;2023-06-19T03:34:38;107.47;;;18.50;;
61907;SDS011;47864;52.526;19.672;2023-06-19T03:36:39;105.95;;;18.85;;
61907;SDS011;47864;52.526;19.672;2023-06-19T03:38:41;73.70;;;18.23;;
61907;SDS011;47864;52.526;19.672;2023-06-19T03:40:42;70.82;;;17.27;;
61907;SDS011;47864;52.526;19.672;2023-06-19T03:42:44;54.72;;;17.75;;
61907;SDS011;47864;52.526;19.672;2023-06-19T03:44:46;65.75;;;18.77;;
61907;SDS011;47864;52.526;19.672;2023-06-19T03:46:47;55.83;;;17.42;;
61907;SDS011;47864;52.526;19.672;2023-06-19T03:48:49;42.75;;;18.48;;
61907;SDS011;47864;52.526;19.672;2023-06-19T03:50:50;47.08;;;17.90;;
61907;SDS011;47864;52.526;19.672;2023-06-19T03:52:52;32.22;;;16.27;;
61907;SDS011;47864;52.526;19.672;2023-06-19T03:54:53;30.00;;;17.70;;
61907;SDS011;47864;52.526;19.672;2023-06-19T03:56:55;40.67;;;17.05;;
61907;SDS011;47864;52.526;19.672;2023-06-19T03:58:56;41.38;;;17.60;;
61907;SDS011;47864;52.526;19.672;2023-06-19T04:00:58;39.30;;;18.00;;
61907;SDS011;47864;52.526;19.672;2023-06-19T04:03:00;69.05;;;18.35;;
61907;SDS011;47864;52.526;19.672;2023-06-19T04:05:01;44.15;;;18.60;;
61907;SDS011;47864;52.526;19.672;2023-06-19T04:07:03;93.25;;;18.25;;
61907;SDS011;47864;52.526;19.672;2023-06-19T04:09:05;93.43;;;18.13;;
61907;SDS011;47864;52.526;19.672;2023-06-19T04:11:07;88.00;;;18.10;;
61907;SDS011;47864;52.526;19.672;2023-06-19T04:13:08;64.32;;;17.83;;
61907;SDS011;47864;52.526;19.672;2023-06-19T04:15:10;73.32;;;18.67;;
61907;SDS011;47864;52.526;19.672;2023-06-19T04:17:11;47.15;;;18.13;;
61907;SDS011;47864;52.526;19.672;2023-06-19T04:19:13;33.63;;;18.63;;
61907;SDS011;47864;52.526;19.672;2023-06-19T04:21:14;69.28;;;17.45;;
61907;SDS011;47864;52.526;19.672;2023-06-19T04:23:16;49.28;;;17.38;;
61907;SDS011;47864;52.526;19.672;2023-06-19T04:25:17;81.32;;;25.42;;
61907;SDS011;47864;52.526;19.672;2023-06-19T04:27:19;45.20;;;24.20;;
61907;SDS011;47864;52.526;19.672;2023-06-19T04:29:21;56.17;;;24.83;;
61907;SDS011;47864;52.526;19.672;2023-06-19T04:31:22;59.80;;;20.42;;
61907;SDS011;47864;52.526;19.672;2023-06-19T04:33:24;65.68;;;34.45;;
61907;SDS011;47864;52.526;19.672;2023-06-19T04:35:26;68.13;;;21.85;;
61907;SDS011;47864;52.526;19.672;2023-06-19T04:37:28;41.10;;;23.73;;
61907;SDS011;47864;52.526;19.672;2023-06-19T04:39:30;56.60;;;22.80;;
61907;SDS011;47864;52.526;19.672;2023-06-19T04:41:31;73.13;;;30.02;;
61907;SDS011;47864;52.526;19.672;2023-06-19T04:43:33;39.85;;;23.38;;
61907;SDS011;47864;52.526;19.672;2023-06-19T04:45:34;50.53;;;20.52;;
61907;SDS011;47864;52.526;19.672;2023-06-19T04:47:36;33.92;;;19.67;;
61907;SDS011;47864;52.526;19.672;2023-06-19T04:49:52;36.63;;;26.42;;
61907;SDS011;47864;52.526;19.672;2023-06-19T04:51:54;47.15;;;30.10;;
61907;SDS011;47864;52.526;19.672;2023-06-19T04:53:55;41.33;;;23.00;;
61907;SDS011;47864;52.526;19.672;2023-06-19T04:55:57;36.70;;;23.13;;
61907;SDS011;47864;52.526;19.672;2023-06-19T04:58:02;243.38;;;135.65;;
61907;SDS011;47864;52.526;19.672;2023-06-19T05:00:04;38.67;;;24.52;;
61907;SDS011;47864;52.526;19.672;2023-06-19T05:02:06;33.63;;;21.60;;
61907;SDS011;47864;52.526;19.672;2023-06-19T05:04:08;30.38;;;20.15;;
61907;SDS011;47864;52.526;19.672;2023-06-19T05:06:09;53.63;;;26.95;;
61907;SDS011;47864;52.526;19.672;2023-06-19T05:08:12;30.30;;;22.70;;
61907;SDS011;47864;52.526;19.672;2023-06-19T05:10:14;36.78;;;21.98;;
61907;SDS011;47864;52.526;19.672;2023-06-19T05:12:17;26.63;;;22.17;;
61907;SDS011;47864;52.526;19.672;2023-06-19T05:14:18;24.45;;;20.98;;
61907;SDS011;47864;52.526;19.672;2023-06-19T05:16:20;23.50;;;19.90;;
61907;SDS011;47864;52.526;19.672;2023-06-19T05:18:21;28.30;;;20.30;;
61907;SDS011;47864;52.526;19.672;2023-06-19T05:20:23;28.58;;;23.55;;
61907;SDS011;47864;52.526;19.672;2023-06-19T05:22:25;35.38;;;29.52;;
61907;SDS011;47864;52.526;19.672;2023-06-19T05:24:27;43.63;;;35.60;;
61907;SDS011;47864;52.526;19.672;2023-06-19T05:26:28;41.83;;;32.85;;
61907;SDS011;47864;52.526;19.672;2023-06-19T05:28:30;40.05;;;31.75;;
61907;SDS011;47864;52.526;19.672;2023-06-19T05:30:31;29.00;;;24.42;;
61907;SDS011;47864;52.526;19.672;2023-06-19T05:32:33;28.17;;;22.45;;
61907;SDS011;47864;52.526;19.672;2023-06-19T05:34:35;25.52;;;21.60;;
61907;SDS011;47864;52.526;19.672;2023-06-19T05:36:36;27.40;;;22.95;;
61907;SDS011;47864;52.526;19.672;2023-06-19T05:38:38;26.42;;;22.75;;
61907;SDS011;47864;52.526;19.672;2023-06-19T05:40:39;26.23;;;21.88;;
61907;SDS011;47864;52.526;19.672;2023-06-19T05:42:41;25.67;;;22.45;;
61907;SDS011;47864;52.526;19.672;2023-06-19T05:44:42;26.77;;;22.02;;
61907;SDS011;47864;52.526;19.672;2023-06-19T05:46:44;27.80;;;23.75;;
61907;SDS011;47864;52.526;19.672;2023-06-19T05:48:46;26.33;;;22.60;;
61907;SDS011;47864;52.526;19.672;2023-06-19T05:50:49;28.75;;;23.73;;
61907;SDS011;47864;52.526;19.672;2023-06-19T05:52:51;26.35;;;22.25;;
61907;SDS011;47864;52.526;19.672;2023-06-19T05:54:52;29.17;;;23.17;;
61907;SDS011;47864;52.526;19.672;2023-06-19T05:56:54;26.92;;;22.15;;
61907;SDS011;47864;52.526;19.672;2023-06-19T05:58:55;23.83;;;20.88;;
61907;SDS011;47864;52.526;19.672;2023-06-19T06:00:57;24.80;;;21.95;;
61907;SDS011;47864;52.526;19.672;2023-06-19T06:02:58;22.95;;;20.35;;
61907;SDS011;47864;52.526;19.672;2023-06-19T06:05:00;24.13;;;20.23;;
61907;SDS011;47864;52.526;19.672;2023-06-19T06:07:02;24.10;;;20.58;;
61907;SDS011;47864;52.526;19.672;2023-06-19T06:09:04;22.38;;;19.92;;
61907;SDS011;47864;52.526;19.672;2023-06-19T06:11:05;24.88;;;20.15;;
61907;SDS011;47864;52.526;19.672;2023-06-19T06:13:07;23.15;;;19.60;;
61907;SDS011;47864;52.526;19.672;2023-06-19T06:15:08;23.65;;;18.88;;
61907;SDS011;47864;52.526;19.672;2023-06-19T06:17:10;25.00;;;18.05;;
61907;SDS011;47864;52.526;19.672;2023-06-19T06:19:11;20.83;;;18.00;;
61907;SDS011;47864;52.526;19.672;2023-06-19T06:21:13;20.00;;;16.67;;
61907;SDS011;47864;52.526;19.672;2023-06-19T06:23:15;18.92;;;16.58;;
61907;SDS011;47864;52.526;19.672;2023-06-19T06:25:16;19.45;;;16.33;;
61907;SDS011;47864;52.526;19.672;2023-06-19T06:27:18;18.50;;;16.45;;
61907;SDS011;47864;52.526;19.672;2023-06-19T06:29:19;17.75;;;15.85;;
61907;SDS011;47864;52.526;19.672;2023-06-19T06:31:24;19.83;;;15.55;;
61907;SDS011;47864;52.526;19.672;2023-06-19T06:33:25;18.27;;;14.80;;
61907;SDS011;47864;52.526;19.672;2023-06-19T06:35:27;17.33;;;15.30;;
61907;SDS011;47864;52.526;19.672;2023-06-19T06:37:28;16.50;;;13.80;;
61907;SDS011;47864;52.526;19.672;2023-06-19T06:39:30;16.33;;;13.80;;
61907;SDS011;47864;52.526;19.672;2023-06-19T06:41:31;15.30;;;13.75;;
61907;SDS011;47864;52.526;19.672;2023-06-19T06:43:33;17.10;;;14.60;;
61907;SDS011;47864;52.526;19.672;2023-06-19T06:45:35;27.92;;;17.50;;
61907;SDS011;47864;52.526;19.672;2023-06-19T06:47:37;16.50;;;13.45;;
61907;SDS011;47864;52.526;19.672;2023-06-19T06:49:38;14.50;;;13.00;;
61907;SDS011;47864;52.526;19.672;2023-06-19T06:51:40;16.60;;;13.10;;
61907;SDS011;47864;52.526;19.672;2023-06-19T06:53:42;14.07;;;12.18;;
61907;SDS011;47864;52.526;19.672;2023-06-19T06:55:43;15.40;;;12.02;;
61907;SDS011;47864;52.526;19.672;2023-06-19T06:57:45;15.77;;;12.18;;
61907;SDS011;47864;52.526;19.672;2023-06-19T06:59:47;14.32;;;10.07;;
61907;SDS011;47864;52.526;19.672;2023-06-19T07:01:48;13.10;;;10.20;;
61907;SDS011;47864;52.526;19.672;2023-06-19T07:03:50;10.90;;;9.80;;
61907;SDS011;47864;52.526;19.672;2023-06-19T07:05:52;10.88;;;9.77;;
61907;SDS011;47864;52.526;19.672;2023-06-19T07:07:53;10.32;;;9.20;;
61907;SDS011;47864;52.526;19.672;2023-06-19T07:09:55;10.80;;;9.23;;
61907;SDS011;47864;52.526;19.672;2023-06-19T07:11:56;9.93;;;7.65;;
61907;SDS011;47864;52.526;19.672;2023-06-19T07:13:58;9.05;;;8.15;;
61907;SDS011;47864;52.526;19.672;2023-06-19T07:15:59;9.18;;;7.97;;
61907;SDS011;47864;52.526;19.672;2023-06-19T07:18:01;9.57;;;7.68;;
61907;SDS011;47864;52.526;19.672;2023-06-19T07:20:03;9.20;;;7.65;;
61907;SDS011;47864;52.526;19.672;2023-06-19T07:22:05;9.25;;;8.25;;
61907;SDS011;47864;52.526;19.672;2023-06-19T07:24:07;8.68;;;7.68;;
61907;SDS011;47864;52.526;19.672;2023-06-19T07:26:09;11.27;;;7.53;;
61907;SDS011;47864;52.526;19.672;2023-06-19T07:28:11;12.05;;;7.97;;
61907;SDS011;47864;52.526;19.672;2023-06-19T07:30:12;10.73;;;8.70;;
61907;SDS011;47864;52.526;19.672;2023-06-19T07:32:17;9.48;;;8.48;;
61907;SDS011;47864;52.526;19.672;2023-06-19T07:34:18;10.05;;;8.40;;
61907;SDS011;47864;52.526;19.672;2023-06-19T07:36:20;8.48;;;7.68;;
61907;SDS011;47864;52.526;19.672;2023-06-19T07:38:22;12.77;;;8.20;;
61907;SDS011;47864;52.526;19.672;2023-06-19T07:40:23;8.70;;;7.80;;
61907;SDS011;47864;52.526;19.672;2023-06-19T07:42:26;9.68;;;7.13;;
61907;SDS011;47864;52.526;19.672;2023-06-19T07:44:27;9.30;;;7.38;;
61907;SDS011;47864;52.526;19.672;2023-06-19T07:46:28;8.95;;;7.03;;
61907;SDS011;47864;52.526;19.672;2023-06-19T07:48:30;8.18;;;7.28;;
61907;SDS011;47864;52.526;19.672;2023-06-19T07:50:32;7.88;;;7.07;;
61907;SDS011;47864;52.526;19.672;2023-06-19T07:52:34;9.77;;;7.00;;
61907;SDS011;47864;52.526;19.672;2023-06-19T07:54:36;7.55;;;6.78;;
61907;SDS011;47864;52.526;19.672;2023-06-19T07:56:37;13.18;;;7.07;;
61907;SDS011;47864;52.526;19.672;2023-06-19T07:58:39;8.38;;;6.75;;
61907;SDS011;47864;52.526;19.672;2023-06-19T08:00:41;8.80;;;7.50;;
61907;SDS011;47864;52.526;19.672;2023-06-19T08:02:42;11.85;;;6.63;;
61907;SDS011;47864;52.526;19.672;2023-06-19T08:04:44;6.57;;;5.80;;
61907;SDS011;47864;52.526;19.672;2023-06-19T08:06:47;6.80;;;6.05;;
61907;SDS011;47864;52.526;19.672;2023-06-19T08:08:48;9.77;;;5.90;;
61907;SDS011;47864;52.526;19.672;2023-06-19T08:10:50;9.18;;;6.22;;
61907;SDS011;47864;52.526;19.672;2023-06-19T08:12:52;7.82;;;6.10;;
61907;SDS011;47864;52.526;19.672;2023-06-19T08:14:54;6.63;;;5.60;;
61907;SDS011;47864;52.526;19.672;2023-06-19T08:16:56;7.00;;;6.30;;
61907;SDS011;47864;52.526;19.672;2023-06-19T08:18:58;6.20;;;5.25;;
61907;SDS011;47864;52.526;19.672;2023-06-19T08:20:59;8.18;;;6.05;;
61907;SDS011;47864;52.526;19.672;2023-06-19T08:23:01;6.78;;;5.55;;
61907;SDS011;47864;52.526;19.672;2023-06-19T08:25:06;7.75;;;5.90;;
61907;SDS011;47864;52.526;19.672;2023-06-19T08:27:08;7.25;;;6.00;;
61907;SDS011;47864;52.526;19.672;2023-06-19T08:29:10;8.95;;;6.07;;
61907;SDS011;47864;52.526;19.672;2023-06-19T08:31:11;8.27;;;6.43;;
61907;SDS011;47864;52.526;19.672;2023-06-19T08:33:13;8.60;;;6.75;;
61907;SDS011;47864;52.526;19.672;2023-06-19T08:35:15;7.70;;;6.15;;
61907;SDS011;47864;52.526;19.672;2023-06-19T08:37:17;7.85;;;7.05;;
61907;SDS011;47864;52.526;19.672;2023-06-19T08:39:19;8.43;;;6.50;;
61907;SDS011;47864;52.526;19.672;2023-06-19T08:41:21;9.80;;;6.97;;
61907;SDS011;47864;52.526;19.672;2023-06-19T08:43:22;7.65;;;6.78;;
61907;SDS011;47864;52.526;19.672;2023-06-19T08:45:26;8.38;;;6.43;;
61907;SDS011;47864;52.526;19.672;2023-06-19T08:47:34;9.77;;;6.90;;
61907;SDS011;47864;52.526;19.672;2023-06-19T08:49:35;10.00;;;7.15;;
61907;SDS011;47864;52.526;19.672;2023-06-19T08:51:37;10.90;;;7.22;;
61907;SDS011;47864;52.526;19.672;2023-06-19T08:53:45;7.88;;;6.13;;
61907;SDS011;47864;52.526;19.672;2023-06-19T08:55:48;9.77;;;7.35;;
61907;SDS011;47864;52.526;19.672;2023-06-19T08:57:50;7.82;;;6.97;;
61907;SDS011;47864;52.526;19.672;2023-06-19T08:59:52;8.10;;;6.38;;
61907;SDS011;47864;52.526;19.672;2023-06-19T09:01:54;11.98;;;7.30;;
61907;SDS011;47864;52.526;19.672;2023-06-19T09:03:56;8.88;;;7.88;;
61907;SDS011;47864;52.526;19.672;2023-06-19T09:06:07;7.82;;;7.03;;
61907;SDS011;47864;52.526;19.672;2023-06-19T09:08:12;7.03;;;6.20;;
61907;SDS011;47864;52.526;19.672;2023-06-19T09:10:15;8.27;;;6.07;;
61907;SDS011;47864;52.526;19.672;2023-06-19T09:12:18;7.75;;;6.68;;
61907;SDS011;47864;52.526;19.672;2023-06-19T09:14:23;9.30;;;6.90;;
61907;SDS011;47864;52.526;19.672;2023-06-19T09:16:36;8.50;;;7.40;;
61907;SDS011;47864;52.526;19.672;2023-06-19T09:18:42;10.60;;;8.15;;
61907;SDS011;47864;52.526;19.672;2023-06-19T09:20:45;8.15;;;6.38;;
61907;SDS011;47864;52.526;19.672;2023-06-19T09:22:47;8.88;;;7.00;;
61907;SDS011;47864;52.526;19.672;2023-06-19T09:24:49;8.13;;;7.32;;
61907;SDS011;47864;52.526;19.672;2023-06-19T09:26:51;8.32;;;7.30;;
61907;SDS011;47864;52.526;19.672;2023-06-19T09:28:52;11.18;;;6.43;;
61907;SDS011;47864;52.526;19.672;2023-06-19T09:30:55;7.93;;;5.80;;
61907;SDS011;47864;52.526;19.672;2023-06-19T09:33:05;8.25;;;6.68;;
61907;SDS011;47864;52.526;19.672;2023-06-19T09:35:08;7.63;;;6.00;;
61907;SDS011;47864;52.526;19.672;2023-06-19T09:37:09;10.27;;;7.68;;
61907;SDS011;47864;52.526;19.672;2023-06-19T09:39:11;8.10;;;5.97;;
61907;SDS011;47864;52.526;19.672;2023-06-19T09:41:14;5.88;;;4.80;;
61907;SDS011;47864;52.526;19.672;2023-06-19T09:43:18;6.68;;;5.55;;
61907;SDS011;47864;52.526;19.672;2023-06-19T09:45:24;6.40;;;5.57;;
61907;SDS011;47864;52.526;19.672;2023-06-19T09:47:31;8.07;;;6.03;;
61907;SDS011;47864;52.526;19.672;2023-06-19T09:49:54;6.75;;;5.45;;
61907;SDS011;47864;52.526;19.672;2023-06-19T09:53:58;6.28;;;5.20;;
61907;SDS011;47864;52.526;19.672;2023-06-19T09:56:00;5.53;;;4.88;;
61907;SDS011;47864;52.526;19.672;2023-06-19T09:58:02;6.70;;;6.00;;
61907;SDS011;47864;52.526;19.672;2023-06-19T10:00:05;9.02;;;6.82;;
61907;SDS011;47864;52.526;19.672;2023-06-19T10:04:10;10.38;;;7.05;;
61907;SDS011;47864;52.526;19.672;2023-06-19T10:06:16;8.70;;;7.13;;
61907;SDS011;47864;52.526;19.672;2023-06-19T10:08:26;10.68;;;6.88;;
61907;SDS011;47864;52.526;19.672;2023-06-19T10:10:29;8.85;;;6.60;;
61907;SDS011;47864;52.526;19.672;2023-06-19T10:12:44;9.65;;;6.10;;
61907;SDS011;47864;52.526;19.672;2023-06-19T10:14:47;7.32;;;6.60;;
61907;SDS011;47864;52.526;19.672;2023-06-19T10:16:49;7.50;;;5.22;;
61907;SDS011;47864;52.526;19.672;2023-06-19T10:18:50;6.65;;;5.35;;
61907;SDS011;47864;52.526;19.672;2023-06-19T10:20:53;7.88;;;5.75;;
61907;SDS011;47864;52.526;19.672;2023-06-19T10:22:56;6.25;;;4.28;;
61907;SDS011;47864;52.526;19.672;2023-06-19T10:25:05;6.03;;;5.25;;
61907;SDS011;47864;52.526;19.672;2023-06-19T10:27:07;6.57;;;5.32;;
61907;SDS011;47864;52.526;19.672;2023-06-19T10:29:15;7.25;;;4.68;;
61907;SDS011;47864;52.526;19.672;2023-06-19T10:31:18;7.40;;;5.10;;
61907;SDS011;47864;52.526;19.672;2023-06-19T10:33:20;5.20;;;4.70;;
61907;SDS011;47864;52.526;19.672;2023-06-19T10:35:23;7.63;;;5.40;;
61907;SDS011;47864;52.526;19.672;2023-06-19T10:37:34;7.22;;;5.13;;
61907;SDS011;47864;52.526;19.672;2023-06-19T10:39:35;9.30;;;4.95;;
61907;SDS011;47864;52.526;19.672;2023-06-19T10:41:39;8.48;;;5.18;;
61907;SDS011;47864;52.526;19.672;2023-06-19T10:43:41;7.22;;;5.30;;
61907;SDS011;47864;52.526;19.672;2023-06-19T10:45:42;6.35;;;5.50;;
61907;SDS011;47864;52.526;19.672;2023-06-19T10:47:44;6.70;;;5.70;;
61907;SDS011;47864;52.526;19.672;2023-06-19T10:49:46;7.63;;;5.13;;
61907;SDS011;47864;52.526;19.672;2023-06-19T10:51:48;8.30;;;5.80;;
61907;SDS011;47864;52.526;19.672;2023-06-19T10:53:50;7.00;;;5.60;;
61907;SDS011;47864;52.526;19.672;2023-06-19T10:55:57;5.93;;;4.78;;
61907;SDS011;47864;52.526;19.672;2023-06-19T10:58:00;11.25;;;6.20;;
61907;SDS011;47864;52.526;19.672;2023-06-19T11:00:02;5.63;;;5.00;;
61907;SDS011;47864;52.526;19.672;2023-06-19T11:02:04;6.85;;;5.47;;
61907;SDS011;47864;52.526;19.672;2023-06-19T11:04:09;6.60;;;4.80;;
61907;SDS011;47864;52.526;19.672;2023-06-19T11:06:14;6.13;;;4.85;;
61907;SDS011;47864;52.526;19.672;2023-06-19T11:08:21;6.07;;;5.20;;
61907;SDS011;47864;52.526;19.672;2023-06-19T11:10:24;6.43;;;5.32;;
61907;SDS011;47864;52.526;19.672;2023-06-19T11:12:27;7.38;;;5.20;;
61907;SDS011;47864;52.526;19.672;2023-06-19T11:14:29;7.53;;;5.07;;
61907;SDS011;47864;52.526;19.672;2023-06-19T11:16:32;8.97;;;5.27;;
61907;SDS011;47864;52.526;19.672;2023-06-19T11:18:34;6.75;;;4.90;;
61907;SDS011;47864;52.526;19.672;2023-06-19T11:20:48;5.43;;;4.18;;
61907;SDS011;47864;52.526;19.672;2023-06-19T11:22:55;5.60;;;4.32;;
61907;SDS011;47864;52.526;19.672;2023-06-19T11:25:01;5.18;;;4.43;;
61907;SDS011;47864;52.526;19.672;2023-06-19T11:27:04;6.07;;;4.93;;
61907;SDS011;47864;52.526;19.672;2023-06-19T11:31:26;5.78;;;4.80;;
61907;SDS011;47864;52.526;19.672;2023-06-19T11:33:28;5.90;;;5.20;;
61907;SDS011;47864;52.526;19.672;2023-06-19T11:35:33;8.70;;;4.90;;
61907;SDS011;47864;52.526;19.672;2023-06-19T11:37:35;6.35;;;5.30;;
61907;SDS011;47864;52.526;19.672;2023-06-19T11:39:37;8.13;;;5.50;;
61907;SDS011;47864;52.526;19.672;2023-06-19T11:41:38;7.13;;;5.15;;
61907;SDS011;47864;52.526;19.672;2023-06-19T11:43:40;7.07;;;4.75;;
61907;SDS011;47864;52.526;19.672;2023-06-19T11:45:47;8.02;;;5.88;;
61907;SDS011;47864;52.526;19.672;2023-06-19T11:47:49;7.15;;;5.18;;
61907;SDS011;47864;52.526;19.672;2023-06-19T11:49:51;6.70;;;4.95;;
61907;SDS011;47864;52.526;19.672;2023-06-19T11:51:53;6.95;;;4.82;;
61907;SDS011;47864;52.526;19.672;2023-06-19T11:53:54;6.07;;;5.22;;
61907;SDS011;47864;52.526;19.672;2023-06-19T11:55:56;5.32;;;4.63;;
61907;SDS011;47864;52.526;19.672;2023-06-19T11:57:57;5.63;;;4.95;;
61907;SDS011;47864;52.526;19.672;2023-06-19T11:59:59;12.45;;;6.53;;
61907;SDS011;47864;52.526;19.672;2023-06-19T12:02:01;8.30;;;6.22;;
61907;SDS011;47864;52.526;19.672;2023-06-19T12:04:03;8.27;;;5.60;;